sensor_id;sensor_type;location;lat;lon;timestamp;pressure;altitude;pressure_sealevel;temperature;humidity
68489;BME280;55481;48.764;8.936;2023-02-10T00:01:27;98780;;;-4.7;79
68489;BME280;55481;48.764;8.936;2023-02-10T00:03:57;98780;;;-4.6;78.5
68489;BME280;55481;48.764;8.936;2023-02-10T00:06:28;98780;;;-4.7;79
68489;BME280;55481;48.764;8.936;2023-02-10T00:19:00;98780;;;-4.7;79
68489;BME280;55481;48.764;8.936;2023-02-10T00:21:31;98780;;;-4.7;78.5
68489;BME280;55481;48.764;8.936;2023-02-10T00:24:01;98780;;;-4.7;79
68489;BME280;55481;48.764;8.936;2023-02-10T00:26:31;98780;;;-4.7;78.5
68489;BME280;55481;48.764;8.936;2023-02-10T00:29:02;98790;;;-4.8;78.5
68489;BME280;55481;48.764;8.936;2023-02-10T00:31:44;98790;;;-5;79
68489;BME280;55481;48.764;8.936;2023-02-10T00:34:16;98790;;;-5.2;79.5
68489;BME280;55481;48.764;8.936;2023-02-10T00:36:45;98790;;;-5.2;79.5
68489;BME280;55481;48.764;8.936;2023-02-10T00:41:55;98800;;;-5.2;80
68489;BME280;55481;48.764;8.936;2023-02-10T00:46:45;98800;;;-5.3;79.5
68489;BME280;55481;48.764;8.936;2023-02-10T00:51:58;98810;;;-4.7;79.5
68489;BME280;55481;48.764;8.936;2023-02-10T00:54:28;98810;;;-4.7;78.5
68489;BME280;55481;48.764;8.936;2023-02-10T00:56:59;98810;;;-5.1;79
68489;BME280;55481;48.764;8.936;2023-02-10T00:59:29;98810;;;-5.3;79.5
68489;BME280;55481;48.764;8.936;2023-02-10T01:02:00;98810;;;-5.3;79.5
68489;BME280;55481;48.764;8.936;2023-02-10T01:04:31;98810;;;-5.1;79.5
68489;BME280;55481;48.764;8.936;2023-02-10T01:06:49;98800;;;-5;79.5
68489;BME280;55481;48.764;8.936;2023-02-10T01:09:21;98800;;;-5;79
68489;BME280;55481;48.764;8.936;2023-02-10T01:11:59;98800;;;-4.8;79
68489;BME280;55481;48.764;8.936;2023-02-10T01:14:29;98790;;;-4.9;78.5
68489;BME280;55481;48.764;8.936;2023-02-10T01:16:52;98800;;;-4.8;78.5
68489;BME280;55481;48.764;8.936;2023-02-10T01:19:21;98800;;;-4.8;78.5
68489;BME280;55481;48.764;8.936;2023-02-10T01:21:51;98810;;;-4.8;78.5
68489;BME280;55481;48.764;8.936;2023-02-10T01:26:40;98820;;;-5;78.5
68489;BME280;55481;48.764;8.936;2023-02-10T01:29:10;98820;;;-5.1;79
68489;BME280;55481;48.764;8.936;2023-02-10T01:36:43;98810;;;-5.7;80
68489;BME280;55481;48.764;8.936;2023-02-10T01:39:13;98810;;;-5.5;80
68489;BME280;55481;48.764;8.936;2023-02-10T01:41:43;98800;;;-5.4;79.5
68489;BME280;55481;48.764;8.936;2023-02-10T01:46:45;98810;;;-5.2;79
68489;BME280;55481;48.764;8.936;2023-02-10T01:49:28;98810;;;-5.3;79
68489;BME280;55481;48.764;8.936;2023-02-10T01:51:59;98810;;;-5.3;79
68489;BME280;55481;48.764;8.936;2023-02-10T01:54:28;98820;;;-5.2;79
68489;BME280;55481;48.764;8.936;2023-02-10T02:07:08;98830;;;-5.7;80
68489;BME280;55481;48.764;8.936;2023-02-10T02:09:48;98840;;;-5.7;79.5
68489;BME280;55481;48.764;8.936;2023-02-10T02:12:21;98840;;;-5.7;79.5
68489;BME280;55481;48.764;8.936;2023-02-10T02:14:44;98840;;;-5.6;79.5
68489;BME280;55481;48.764;8.936;2023-02-10T02:17:15;98840;;;-5.7;79.5
68489;BME280;55481;48.764;8.936;2023-02-10T02:22:19;98830;;;-5.5;79.5
68489;BME280;55481;48.764;8.936;2023-02-10T02:34:42;98850;;;-5.3;78.5
68489;BME280;55481;48.764;8.936;2023-02-10T02:37:07;98850;;;-5.3;78.5
68489;BME280;55481;48.764;8.936;2023-02-10T02:39:32;98850;;;-5.5;79
68489;BME280;55481;48.764;8.936;2023-02-10T02:44:21;98860;;;-5.6;79.5
68489;BME280;55481;48.764;8.936;2023-02-10T02:52:28;98850;;;-5.7;80
68489;BME280;55481;48.764;8.936;2023-02-10T02:54:47;98850;;;-5.7;79.5
68489;BME280;55481;48.764;8.936;2023-02-10T03:02:07;98840;;;-5.4;78.5
68489;BME280;55481;48.764;8.936;2023-02-10T03:04:36;98850;;;-5.4;79
68489;BME280;55481;48.764;8.936;2023-02-10T03:07:07;98850;;;-5.4;79
68489;BME280;55481;48.764;8.936;2023-02-10T03:11:55;98850;;;-5.4;79
68489;BME280;55481;48.764;8.936;2023-02-10T03:14:25;98850;;;-5.3;79
68489;BME280;55481;48.764;8.936;2023-02-10T03:16:56;98850;;;-5.2;79
68489;BME280;55481;48.764;8.936;2023-02-10T03:19:26;98850;;;-5.2;79
68489;BME280;55481;48.764;8.936;2023-02-10T03:21:59;98850;;;-5.3;78.5
68489;BME280;55481;48.764;8.936;2023-02-10T03:24:28;98850;;;-5.3;79
68489;BME280;55481;48.764;8.936;2023-02-10T03:26:58;98850;;;-5.4;78.5
68489;BME280;55481;48.764;8.936;2023-02-10T03:29:40;98850;;;-5.4;79
68489;BME280;55481;48.764;8.936;2023-02-10T03:32:10;98850;;;-5.4;79
68489;BME280;55481;48.764;8.936;2023-02-10T03:34:49;98850;;;-5.4;79
68489;BME280;55481;48.764;8.936;2023-02-10T03:37:19;98860;;;-5.3;79
68489;BME280;55481;48.764;8.936;2023-02-10T03:45:11;98870;;;-5.4;79
68489;BME280;55481;48.764;8.936;2023-02-10T03:47:41;98870;;;-5.6;79
68489;BME280;55481;48.764;8.936;2023-02-10T03:49:54;98870;;;-5.9;79.5
68489;BME280;55481;48.764;8.936;2023-02-10T03:54:43;98880;;;-5.9;79.5
68489;BME280;55481;48.764;8.936;2023-02-10T03:57:13;98880;;;-6;79.5
68489;BME280;55481;48.764;8.936;2023-02-10T03:59:44;98880;;;-6;80
68489;BME280;55481;48.764;8.936;2023-02-10T04:02:23;98880;;;-5.9;79.5
68489;BME280;55481;48.764;8.936;2023-02-10T04:04:33;98880;;;-6;79.5
68489;BME280;55481;48.764;8.936;2023-02-10T04:07:04;98880;;;-6;79.5
68489;BME280;55481;48.764;8.936;2023-02-10T04:09:33;98880;;;-6;79.5
68489;BME280;55481;48.764;8.936;2023-02-10T04:12:04;98880;;;-6.1;79.5
68489;BME280;55481;48.764;8.936;2023-02-10T04:14:37;98890;;;-6;80
68489;BME280;55481;48.764;8.936;2023-02-10T04:17:05;98880;;;-5.9;79.5
68489;BME280;55481;48.764;8.936;2023-02-10T04:19:36;98880;;;-5.9;79.5
68489;BME280;55481;48.764;8.936;2023-02-10T04:29:58;98880;;;-5.7;79
68489;BME280;55481;48.764;8.936;2023-02-10T04:34:49;98880;;;-6.2;79.5
68489;BME280;55481;48.764;8.936;2023-02-10T04:37:19;98880;;;-6.1;79.5
68489;BME280;55481;48.764;8.936;2023-02-10T04:42:20;98890;;;-6.1;79.5
68489;BME280;55481;48.764;8.936;2023-02-10T04:44:51;98890;;;-6.2;79.5
68489;BME280;55481;48.764;8.936;2023-02-10T04:47:23;98890;;;-6.2;79.5
68489;BME280;55481;48.764;8.936;2023-02-10T04:49:51;98890;;;-6.3;80
68489;BME280;55481;48.764;8.936;2023-02-10T04:52:21;98890;;;-6.2;80
68489;BME280;55481;48.764;8.936;2023-02-10T04:57:11;98890;;;-6.2;79.5
68489;BME280;55481;48.764;8.936;2023-02-10T04:59:41;98890;;;-6.2;79.5
68489;BME280;55481;48.764;8.936;2023-02-10T05:02:12;98890;;;-6;79.5
68489;BME280;55481;48.764;8.936;2023-02-10T05:04:43;98890;;;-6;79
68489;BME280;55481;48.764;8.936;2023-02-10T05:07:13;98890;;;-5.9;79.5
68489;BME280;55481;48.764;8.936;2023-02-10T05:09:44;98890;;;-5.8;79
68489;BME280;55481;48.764;8.936;2023-02-10T05:12:15;98890;;;-5.7;79
68489;BME280;55481;48.764;8.936;2023-02-10T05:14:44;98900;;;-5.7;79
68489;BME280;55481;48.764;8.936;2023-02-10T05:17:15;98900;;;-5.7;79
68489;BME280;55481;48.764;8.936;2023-02-10T05:19:50;98910;;;-5.7;79
68489;BME280;55481;48.764;8.936;2023-02-10T05:32:28;98910;;;-5.8;79
68489;BME280;55481;48.764;8.936;2023-02-10T05:34:59;98910;;;-5.9;79.5
68489;BME280;55481;48.764;8.936;2023-02-10T05:37:29;98910;;;-5.9;79.5
68489;BME280;55481;48.764;8.936;2023-02-10T05:42:18;98910;;;-5.8;79
68489;BME280;55481;48.764;8.936;2023-02-10T05:57:22;98920;;;-5.8;79
68489;BME280;55481;48.764;8.936;2023-02-10T05:59:52;98920;;;-5.9;79
68489;BME280;55481;48.764;8.936;2023-02-10T06:05:25;98930;;;-5.8;79
68489;BME280;55481;48.764;8.936;2023-02-10T06:07:46;98940;;;-5.9;79
68489;BME280;55481;48.764;8.936;2023-02-10T06:10:17;98940;;;-6.1;79
68489;BME280;55481;48.764;8.936;2023-02-10T06:12:48;98950;;;-6;79.5
68489;BME280;55481;48.764;8.936;2023-02-10T06:17:37;98950;;;-5.8;79
68489;BME280;55481;48.764;8.936;2023-02-10T06:20:07;98950;;;-5.9;79
68489;BME280;55481;48.764;8.936;2023-02-10T06:22:37;98950;;;-5.8;79
68489;BME280;55481;48.764;8.936;2023-02-10T06:25:16;98950;;;-5.8;79
68489;BME280;55481;48.764;8.936;2023-02-10T06:29:57;98960;;;-5.7;79
68489;BME280;55481;48.764;8.936;2023-02-10T06:32:28;98960;;;-5.9;79
68489;BME280;55481;48.764;8.936;2023-02-10T06:34:58;98970;;;-6.1;79
68489;BME280;55481;48.764;8.936;2023-02-10T06:37:28;98970;;;-6.1;79.5
68489;BME280;55481;48.764;8.936;2023-02-10T06:39:59;98980;;;-6.2;79.5
68489;BME280;55481;48.764;8.936;2023-02-10T06:50:12;98980;;;-6.3;80
68489;BME280;55481;48.764;8.936;2023-02-10T06:52:42;98990;;;-6.3;80
68489;BME280;55481;48.764;8.936;2023-02-10T06:55:13;98990;;;-6.3;80
68489;BME280;55481;48.764;8.936;2023-02-10T07:00:03;99000;;;-6.3;80
68489;BME280;55481;48.764;8.936;2023-02-10T07:02:32;99000;;;-6.2;79.5
68489;BME280;55481;48.764;8.936;2023-02-10T07:12:34;99000;;;-6;79.5
68489;BME280;55481;48.764;8.936;2023-02-10T07:17:35;98990;;;-5.7;79.5
68489;BME280;55481;48.764;8.936;2023-02-10T07:20:05;98990;;;-5.5;79
68489;BME280;55481;48.764;8.936;2023-02-10T07:22:36;98990;;;-5.4;79
68489;BME280;55481;48.764;8.936;2023-02-10T07:25:19;99000;;;-5.3;79
68489;BME280;55481;48.764;8.936;2023-02-10T07:27:49;98990;;;-5.2;79
68489;BME280;55481;48.764;8.936;2023-02-10T07:30:19;99000;;;-5.1;78.5
68489;BME280;55481;48.764;8.936;2023-02-10T07:32:58;99000;;;-4.9;78.5
68489;BME280;55481;48.764;8.936;2023-02-10T07:42:39;99010;;;-4.8;78.5
68489;BME280;55481;48.764;8.936;2023-02-10T07:45:10;99010;;;-4.6;78.5
68489;BME280;55481;48.764;8.936;2023-02-10T07:47:41;99010;;;-4.5;78.5
68489;BME280;55481;48.764;8.936;2023-02-10T07:50:11;99000;;;-4.5;78.5
68489;BME280;55481;48.764;8.936;2023-02-10T07:52:53;98990;;;-4.4;78
68489;BME280;55481;48.764;8.936;2023-02-10T07:55:23;98990;;;-4.3;78
68489;BME280;55481;48.764;8.936;2023-02-10T07:57:54;98990;;;-4.2;78
68489;BME280;55481;48.764;8.936;2023-02-10T08:00:33;98990;;;-4.2;78
68489;BME280;55481;48.764;8.936;2023-02-10T08:15:46;98990;;;-3.4;77.5
68489;BME280;55481;48.764;8.936;2023-02-10T08:20:38;99000;;;-3.2;77
68489;BME280;55481;48.764;8.936;2023-02-10T08:25:44;99000;;;-2.9;77
68489;BME280;55481;48.764;8.936;2023-02-10T08:30:29;99010;;;-2.8;77.5
68489;BME280;55481;48.764;8.936;2023-02-10T08:33:08;99010;;;-2.5;77
68489;BME280;55481;48.764;8.936;2023-02-10T08:35:38;99000;;;-2.4;77
68489;BME280;55481;48.764;8.936;2023-02-10T08:45:42;99000;;;-1.8;76.5
68489;BME280;55481;48.764;8.936;2023-02-10T08:48:12;99000;;;-1.7;76.5
68489;BME280;55481;48.764;8.936;2023-02-10T08:50:44;98990;;;-1.5;76.5
68489;BME280;55481;48.764;8.936;2023-02-10T08:53:13;99000;;;-1.4;76.5
68489;BME280;55481;48.764;8.936;2023-02-10T08:55:44;99000;;;-1.2;76.5
68489;BME280;55481;48.764;8.936;2023-02-10T09:00:33;99000;;;-0.8;76
68489;BME280;55481;48.764;8.936;2023-02-10T09:03:04;99000;;;-0.8;76.5
68489;BME280;55481;48.764;8.936;2023-02-10T09:05:34;99000;;;-0.6;76
68489;BME280;55481;48.764;8.936;2023-02-10T09:08:04;98990;;;-0.5;76.5
68489;BME280;55481;48.764;8.936;2023-02-10T09:18:18;99000;;;0;76
68489;BME280;55481;48.764;8.936;2023-02-10T09:23:19;98990;;;0.2;76
68489;BME280;55481;48.764;8.936;2023-02-10T09:28:29;99000;;;0.6;75.5
68489;BME280;55481;48.764;8.936;2023-02-10T09:30:51;99000;;;0.7;75.5
68489;BME280;55481;48.764;8.936;2023-02-10T09:33:22;99010;;;0.8;75.5
68489;BME280;55481;48.764;8.936;2023-02-10T09:35:52;99000;;;0.9;75.5
68489;BME280;55481;48.764;8.936;2023-02-10T09:38:23;98990;;;1.1;75.5
68489;BME280;55481;48.764;8.936;2023-02-10T09:42:01;98990;;;1.1;76
68489;BME280;55481;48.764;8.936;2023-02-10T09:43:18;98990;;;1.3;75.5
68489;BME280;55481;48.764;8.936;2023-02-10T09:45:53;98990;;;1.2;75.5
68489;BME280;55481;48.764;8.936;2023-02-10T09:48:31;98990;;;1.4;76
68489;BME280;55481;48.764;8.936;2023-02-10T09:50:45;98990;;;1.5;76
68489;BME280;55481;48.764;8.936;2023-02-10T09:58:06;98990;;;1.5;76
68489;BME280;55481;48.764;8.936;2023-02-10T10:00:35;98990;;;1.7;76
68489;BME280;55481;48.764;8.936;2023-02-10T10:03:13;98990;;;1.9;76
68489;BME280;55481;48.764;8.936;2023-02-10T10:10:38;98980;;;2.2;75.5
68489;BME280;55481;48.764;8.936;2023-02-10T10:13:10;98980;;;2.4;75.5
68489;BME280;55481;48.764;8.936;2023-02-10T10:15:37;98980;;;2.5;75
68489;BME280;55481;48.764;8.936;2023-02-10T10:18:53;98990;;;2.5;75
68489;BME280;55481;48.764;8.936;2023-02-10T10:21:01;98990;;;2.6;75.5
68489;BME280;55481;48.764;8.936;2023-02-10T10:26:04;98990;;;3;75
68489;BME280;55481;48.764;8.936;2023-02-10T10:28:38;98990;;;3.2;75
68489;BME280;55481;48.764;8.936;2023-02-10T10:36:13;98980;;;3.5;74.5
68489;BME280;55481;48.764;8.936;2023-02-10T10:43:45;98980;;;3.7;74.5
68489;BME280;55481;48.764;8.936;2023-02-10T10:46:09;98980;;;3.5;75
68489;BME280;55481;48.764;8.936;2023-02-10T10:48:36;98990;;;3.6;75
68489;BME280;55481;48.764;8.936;2023-02-10T10:50:57;98980;;;3.8;75
68489;BME280;55481;48.764;8.936;2023-02-10T10:53:39;98970;;;4.1;74.5
68489;BME280;55481;48.764;8.936;2023-02-10T10:56:05;98970;;;4.3;74
68489;BME280;55481;48.764;8.936;2023-02-10T11:03:14;98970;;;4.6;74
68489;BME280;55481;48.764;8.936;2023-02-10T11:05:56;98970;;;4.7;74
68489;BME280;55481;48.764;8.936;2023-02-10T11:08:22;98960;;;4.8;74
68489;BME280;55481;48.764;8.936;2023-02-10T11:10:48;98960;;;4.5;74.5
68489;BME280;55481;48.764;8.936;2023-02-10T11:13:19;98960;;;4.4;74.5
68489;BME280;55481;48.764;8.936;2023-02-10T11:21:05;98960;;;4.8;74
68489;BME280;55481;48.764;8.936;2023-02-10T11:23:23;98960;;;4.9;74
68489;BME280;55481;48.764;8.936;2023-02-10T11:28:31;98960;;;5.2;73.5
68489;BME280;55481;48.764;8.936;2023-02-10T11:31:03;98960;;;5.1;73
68489;BME280;55481;48.764;8.936;2023-02-10T11:33:40;98960;;;4.4;74.5
68489;BME280;55481;48.764;8.936;2023-02-10T11:38:20;98960;;;4.2;75.5
68489;BME280;55481;48.764;8.936;2023-02-10T11:45:54;98960;;;4.2;75.5
68489;BME280;55481;48.764;8.936;2023-02-10T11:48:23;98950;;;4.4;75.5
68489;BME280;55481;48.764;8.936;2023-02-10T11:51:02;98950;;;4.4;75
68489;BME280;55481;48.764;8.936;2023-02-10T11:56:07;98950;;;4.5;75
68489;BME280;55481;48.764;8.936;2023-02-10T11:58:45;98950;;;4.4;75
68489;BME280;55481;48.764;8.936;2023-02-10T12:01:08;98950;;;4.5;75
68489;BME280;55481;48.764;8.936;2023-02-10T12:03:54;98950;;;4.5;74.5
68489;BME280;55481;48.764;8.936;2023-02-10T12:13:31;98930;;;4.5;75
68489;BME280;55481;48.764;8.936;2023-02-10T12:16:02;98920;;;4.8;74.5
68489;BME280;55481;48.764;8.936;2023-02-10T12:18:33;98920;;;4.9;74.5
68489;BME280;55481;48.764;8.936;2023-02-10T12:21:17;98920;;;4.7;74.5
68489;BME280;55481;48.764;8.936;2023-02-10T12:23:33;98920;;;4.8;75
68489;BME280;55481;48.764;8.936;2023-02-10T12:26:18;98920;;;4.8;75
68489;BME280;55481;48.764;8.936;2023-02-10T12:28:45;98920;;;4.8;75
68489;BME280;55481;48.764;8.936;2023-02-10T12:46:52;98900;;;5.4;73.5
68489;BME280;55481;48.764;8.936;2023-02-10T12:49:03;98900;;;5.4;73.5
68489;BME280;55481;48.764;8.936;2023-02-10T12:51:59;98900;;;5.4;73.5
68489;BME280;55481;48.764;8.936;2023-02-10T12:54:01;98890;;;5.3;74
68489;BME280;55481;48.764;8.936;2023-02-10T12:56:23;98890;;;5.3;74
68489;BME280;55481;48.764;8.936;2023-02-10T12:58:48;98890;;;5.2;74
68489;BME280;55481;48.764;8.936;2023-02-10T13:01:29;98890;;;5.1;75
68489;BME280;55481;48.764;8.936;2023-02-10T13:04:01;98890;;;5.1;75
68489;BME280;55481;48.764;8.936;2023-02-10T13:06:31;98890;;;5.2;74.5
68489;BME280;55481;48.764;8.936;2023-02-10T13:08:51;98890;;;5.2;75
68489;BME280;55481;48.764;8.936;2023-02-10T13:11:20;98890;;;5.2;74.5
68489;BME280;55481;48.764;8.936;2023-02-10T13:13:47;98880;;;5.4;74.5
68489;BME280;55481;48.764;8.936;2023-02-10T13:16:23;98880;;;5.6;74
68489;BME280;55481;48.764;8.936;2023-02-10T13:19:13;98890;;;5.6;73.5
68489;BME280;55481;48.764;8.936;2023-02-10T13:21:16;98880;;;5.6;74
68489;BME280;55481;48.764;8.936;2023-02-10T13:29:17;98890;;;5.5;74
68489;BME280;55481;48.764;8.936;2023-02-10T13:31:39;98890;;;5.5;74
68489;BME280;55481;48.764;8.936;2023-02-10T13:34:28;98890;;;5.5;74
68489;BME280;55481;48.764;8.936;2023-02-10T13:36:41;98890;;;5.5;74
68489;BME280;55481;48.764;8.936;2023-02-10T13:41:24;98900;;;5.4;74
68489;BME280;55481;48.764;8.936;2023-02-10T13:43:54;98900;;;5.4;74
68489;BME280;55481;48.764;8.936;2023-02-10T13:46:25;98900;;;5.5;74
68489;BME280;55481;48.764;8.936;2023-02-10T14:01:47;98900;;;5.5;73.5
68489;BME280;55481;48.764;8.936;2023-02-10T14:03:44;98900;;;5.5;73.5
68489;BME280;55481;48.764;8.936;2023-02-10T14:06:15;98900;;;5.5;74
68489;BME280;55481;48.764;8.936;2023-02-10T14:08:45;98900;;;5.5;73.5
68489;BME280;55481;48.764;8.936;2023-02-10T14:11:36;98900;;;5.5;73.5
68489;BME280;55481;48.764;8.936;2023-02-10T14:14:49;98890;;;5.5;73.5
68489;BME280;55481;48.764;8.936;2023-02-10T14:21:39;98900;;;5.3;74
68489;BME280;55481;48.764;8.936;2023-02-10T14:24:11;98890;;;5.3;74.5
68489;BME280;55481;48.764;8.936;2023-02-10T14:26:32;98900;;;5.3;74.5
68489;BME280;55481;48.764;8.936;2023-02-10T14:31:30;98890;;;5.4;74
68489;BME280;55481;48.764;8.936;2023-02-10T14:34:00;98900;;;5.4;74
68489;BME280;55481;48.764;8.936;2023-02-10T14:36:30;98900;;;5.4;74
68489;BME280;55481;48.764;8.936;2023-02-10T14:43:49;98890;;;5;75
68489;BME280;55481;48.764;8.936;2023-02-10T14:46:25;98880;;;5;75
68489;BME280;55481;48.764;8.936;2023-02-10T14:48:52;98890;;;5.1;74.5
68489;BME280;55481;48.764;8.936;2023-02-10T14:53:51;98890;;;5.2;74
68489;BME280;55481;48.764;8.936;2023-02-10T14:56:23;98890;;;5.1;74
68489;BME280;55481;48.764;8.936;2023-02-10T15:03:56;98890;;;5;73.5
68489;BME280;55481;48.764;8.936;2023-02-10T15:06:25;98890;;;4.9;74
68489;BME280;55481;48.764;8.936;2023-02-10T15:08:59;98910;;;4.7;74.5
68489;BME280;55481;48.764;8.936;2023-02-10T15:11:55;98900;;;4.7;74.5
68489;BME280;55481;48.764;8.936;2023-02-10T15:14:09;98900;;;4.7;74
68489;BME280;55481;48.764;8.936;2023-02-10T15:16:36;98900;;;4.7;74.5
68489;BME280;55481;48.764;8.936;2023-02-10T15:23:56;98900;;;4.7;74
68489;BME280;55481;48.764;8.936;2023-02-10T15:26:28;98890;;;4.9;73.5
68489;BME280;55481;48.764;8.936;2023-02-10T15:31:53;98880;;;5;73
68489;BME280;55481;48.764;8.936;2023-02-10T15:34:22;98880;;;4.8;73
68489;BME280;55481;48.764;8.936;2023-02-10T15:37:00;98900;;;4.5;74
68489;BME280;55481;48.764;8.936;2023-02-10T15:39:22;98900;;;4.4;74
68489;BME280;55481;48.764;8.936;2023-02-10T15:41:57;98900;;;4.1;75
68489;BME280;55481;48.764;8.936;2023-02-10T15:44:33;98900;;;3.8;75.5
68489;BME280;55481;48.764;8.936;2023-02-10T15:46:41;98900;;;3.8;75.5
68489;BME280;55481;48.764;8.936;2023-02-10T15:49:12;98890;;;3.7;75.5
68489;BME280;55481;48.764;8.936;2023-02-10T15:51:44;98890;;;3.6;75.5
68489;BME280;55481;48.764;8.936;2023-02-10T15:54:12;98890;;;3.4;75.5
68489;BME280;55481;48.764;8.936;2023-02-10T15:56:41;98880;;;3.3;76
68489;BME280;55481;48.764;8.936;2023-02-10T16:02:51;98890;;;3.3;76
68489;BME280;55481;48.764;8.936;2023-02-10T16:04:52;98890;;;3.6;75.5
68489;BME280;55481;48.764;8.936;2023-02-10T16:09:54;98890;;;3.2;76
68489;BME280;55481;48.764;8.936;2023-02-10T16:14:55;98900;;;3;75.5
68489;BME280;55481;48.764;8.936;2023-02-10T16:17:26;98900;;;2.9;75.5
68489;BME280;55481;48.764;8.936;2023-02-10T16:22:33;98910;;;2.7;75.5
68489;BME280;55481;48.764;8.936;2023-02-10T16:25:04;98910;;;2.7;75.5
68489;BME280;55481;48.764;8.936;2023-02-10T16:27:36;98910;;;2.6;75.5
68489;BME280;55481;48.764;8.936;2023-02-10T16:30:06;98910;;;2.5;75.5
68489;BME280;55481;48.764;8.936;2023-02-10T16:35:01;98910;;;2.1;76
68489;BME280;55481;48.764;8.936;2023-02-10T16:42:34;98910;;;1.7;76.5
68489;BME280;55481;48.764;8.936;2023-02-10T16:47:35;98910;;;1.5;76.5
68489;BME280;55481;48.764;8.936;2023-02-10T16:50:07;98910;;;1.5;76
68489;BME280;55481;48.764;8.936;2023-02-10T16:52:36;98920;;;1.4;127.5
68489;BME280;55481;48.764;8.936;2023-02-10T16:55:07;98920;;;1.3;76
68489;BME280;55481;48.764;8.936;2023-02-10T16:57:38;98930;;;1.2;76
68489;BME280;55481;48.764;8.936;2023-02-10T17:02:47;98930;;;1.1;76
68489;BME280;55481;48.764;8.936;2023-02-10T17:05:18;98930;;;1;76
68489;BME280;55481;48.764;8.936;2023-02-10T17:10:21;98940;;;0.9;76
68489;BME280;55481;48.764;8.936;2023-02-10T17:13:00;98950;;;0.7;76
68489;BME280;55481;48.764;8.936;2023-02-10T17:15:26;98950;;;0.7;76.5
68489;BME280;55481;48.764;8.936;2023-02-10T17:17:56;98940;;;0.6;76
68489;BME280;55481;48.764;8.936;2023-02-10T17:20:28;98950;;;0.7;76
68489;BME280;55481;48.764;8.936;2023-02-10T17:25:22;98950;;;0.6;76
68489;BME280;55481;48.764;8.936;2023-02-10T17:27:53;98950;;;0.5;76
68489;BME280;55481;48.764;8.936;2023-02-10T17:33:01;98940;;;0.5;76
68489;BME280;55481;48.764;8.936;2023-02-10T17:35:31;98940;;;0.4;76
68489;BME280;55481;48.764;8.936;2023-02-10T17:37:58;98950;;;0.4;76
68489;BME280;55481;48.764;8.936;2023-02-10T17:40:25;98950;;;0.5;75.5
68489;BME280;55481;48.764;8.936;2023-02-10T17:42:56;98950;;;0.5;75.5
68489;BME280;55481;48.764;8.936;2023-02-10T17:45:27;98950;;;0.5;75.5
68489;BME280;55481;48.764;8.936;2023-02-10T17:48:05;98950;;;0.7;75
68489;BME280;55481;48.764;8.936;2023-02-10T17:53:01;98960;;;0.4;75.5
68489;BME280;55481;48.764;8.936;2023-02-10T17:55:31;98960;;;0.2;75.5
68489;BME280;55481;48.764;8.936;2023-02-10T17:58:12;98960;;;0.1;76
68489;BME280;55481;48.764;8.936;2023-02-10T18:00:33;98960;;;0;76
68489;BME280;55481;48.764;8.936;2023-02-10T18:03:04;98970;;;0;76
68489;BME280;55481;48.764;8.936;2023-02-10T18:05:35;98970;;;0;76
68489;BME280;55481;48.764;8.936;2023-02-10T18:08:06;98980;;;0.1;75.5
68489;BME280;55481;48.764;8.936;2023-02-10T18:10:37;98970;;;0.1;75.5
68489;BME280;55481;48.764;8.936;2023-02-10T18:13:07;98980;;;0;75.5
68489;BME280;55481;48.764;8.936;2023-02-10T18:15:38;98980;;;0.1;75.5
68489;BME280;55481;48.764;8.936;2023-02-10T18:23:23;98980;;;-0.1;75.5
68489;BME280;55481;48.764;8.936;2023-02-10T18:25:59;98980;;;-0.1;75.5
68489;BME280;55481;48.764;8.936;2023-02-10T18:30:47;98990;;;-0.3;75.5
68489;BME280;55481;48.764;8.936;2023-02-10T18:33:17;98990;;;-0.3;76
68489;BME280;55481;48.764;8.936;2023-02-10T18:35:50;98990;;;-0.4;76
68489;BME280;55481;48.764;8.936;2023-02-10T18:38:17;98990;;;-0.5;76
68489;BME280;55481;48.764;8.936;2023-02-10T18:40:47;99000;;;-0.5;76
68489;BME280;55481;48.764;8.936;2023-02-10T18:43:19;99000;;;-0.5;76
68489;BME280;55481;48.764;8.936;2023-02-10T18:45:51;99000;;;-0.6;76
68489;BME280;55481;48.764;8.936;2023-02-10T18:50:46;99010;;;-0.7;76
68489;BME280;55481;48.764;8.936;2023-02-10T18:55:52;99000;;;-0.8;76
68489;BME280;55481;48.764;8.936;2023-02-10T18:58:23;99000;;;-0.9;76.5
68489;BME280;55481;48.764;8.936;2023-02-10T19:00:53;99010;;;-0.8;76
68489;BME280;55481;48.764;8.936;2023-02-10T19:03:23;99000;;;-0.7;75.5
68489;BME280;55481;48.764;8.936;2023-02-10T19:05:53;99010;;;-0.8;75.5
68489;BME280;55481;48.764;8.936;2023-02-10T19:08:17;99010;;;-0.9;76
68489;BME280;55481;48.764;8.936;2023-02-10T19:11:03;99010;;;-0.9;76
68489;BME280;55481;48.764;8.936;2023-02-10T19:13:27;99020;;;-0.9;76
68489;BME280;55481;48.764;8.936;2023-02-10T19:18:14;99010;;;-1;76
68489;BME280;55481;48.764;8.936;2023-02-10T19:20:59;99010;;;-1;76
68489;BME280;55481;48.764;8.936;2023-02-10T19:23:29;99000;;;-1.1;76
68489;BME280;55481;48.764;8.936;2023-02-10T19:31:02;99000;;;-1.2;76
68489;BME280;55481;48.764;8.936;2023-02-10T19:35:58;99010;;;-1.4;76
68489;BME280;55481;48.764;8.936;2023-02-10T19:38:27;99010;;;-1.5;76.5
68489;BME280;55481;48.764;8.936;2023-02-10T19:43:35;99010;;;-1.4;76
68489;BME280;55481;48.764;8.936;2023-02-10T19:46:05;99010;;;-1.5;76
68489;BME280;55481;48.764;8.936;2023-02-10T19:51:05;99010;;;-1.5;76
68489;BME280;55481;48.764;8.936;2023-02-10T19:53:30;99010;;;-1.5;76
68489;BME280;55481;48.764;8.936;2023-02-10T19:56:08;99000;;;-1.5;76
68489;BME280;55481;48.764;8.936;2023-02-10T19:58:39;98990;;;-1.5;76
68489;BME280;55481;48.764;8.936;2023-02-10T20:01:07;99000;;;-1.6;76
68489;BME280;55481;48.764;8.936;2023-02-10T20:03:34;98990;;;-1.5;75.5
68489;BME280;55481;48.764;8.936;2023-02-10T20:08:30;99010;;;-1.5;75.5
68489;BME280;55481;48.764;8.936;2023-02-10T20:11:00;99010;;;-1.6;76
68489;BME280;55481;48.764;8.936;2023-02-10T20:13:31;99010;;;-1.7;76
68489;BME280;55481;48.764;8.936;2023-02-10T20:16:01;99010;;;-1.7;76
68489;BME280;55481;48.764;8.936;2023-02-10T20:18:32;99020;;;-1.8;76
68489;BME280;55481;48.764;8.936;2023-02-10T20:26:17;99000;;;-1.8;76
68489;BME280;55481;48.764;8.936;2023-02-10T20:36:21;99010;;;-1.5;75
68489;BME280;55481;48.764;8.936;2023-02-10T20:38:50;99020;;;-1.6;75.5
68489;BME280;55481;48.764;8.936;2023-02-10T20:41:21;99020;;;-1.8;75.5
68489;BME280;55481;48.764;8.936;2023-02-10T20:48:46;99000;;;-1.9;76
68489;BME280;55481;48.764;8.936;2023-02-10T20:51:16;99000;;;-1.9;76
68489;BME280;55481;48.764;8.936;2023-02-10T20:53:47;99000;;;-1.9;76
68489;BME280;55481;48.764;8.936;2023-02-10T20:56:18;99000;;;-1.9;76
68489;BME280;55481;48.764;8.936;2023-02-10T20:58:49;99010;;;-1.9;76
68489;BME280;55481;48.764;8.936;2023-02-10T21:03:51;99000;;;-2;76